sensor_id;sensor_type;location;lat;lon;timestamp;P1;durP1;ratioP1;P2;durP2;ratioP2
66927;SDS011;59882;45.624;11.698;2024-01-15T00:00:41;87.30;;;53.10;;
66927;SDS011;59882;45.624;11.698;2024-01-15T00:03:07;84.97;;;52.27;;
66927;SDS011;59882;45.624;11.698;2024-01-15T00:05:34;91.32;;;53.35;;
66927;SDS011;59882;45.624;11.698;2024-01-15T00:08:00;85.50;;;52.25;;
66927;SDS011;59882;45.624;11.698;2024-01-15T00:10:25;83.37;;;52.97;;
66927;SDS011;59882;45.624;11.698;2024-01-15T00:12:51;84.87;;;50.23;;
66927;SDS011;59882;45.624;11.698;2024-01-15T00:15:16;87.15;;;52.83;;
66927;SDS011;59882;45.624;11.698;2024-01-15T00:17:42;89.53;;;51.80;;
66927;SDS011;59882;45.624;11.698;2024-01-15T00:20:08;85.38;;;52.17;;
66927;SDS011;59882;45.624;11.698;2024-01-15T00:22:34;82.87;;;52.67;;
66927;SDS011;59882;45.624;11.698;2024-01-15T00:25:01;90.07;;;53.42;;
66927;SDS011;59882;45.624;11.698;2024-01-15T00:27:27;89.13;;;53.67;;
66927;SDS011;59882;45.624;11.698;2024-01-15T00:29:52;89.67;;;53.27;;
66927;SDS011;59882;45.624;11.698;2024-01-15T00:32:19;100.65;;;59.08;;
66927;SDS011;59882;45.624;11.698;2024-01-15T00:34:45;96.13;;;57.05;;
66927;SDS011;59882;45.624;11.698;2024-01-15T00:37:11;93.97;;;56.33;;
66927;SDS011;59882;45.624;11.698;2024-01-15T00:39:37;94.47;;;55.80;;
66927;SDS011;59882;45.624;11.698;2024-01-15T00:42:02;89.80;;;54.28;;
66927;SDS011;59882;45.624;11.698;2024-01-15T00:44:28;94.83;;;55.23;;
66927;SDS011;59882;45.624;11.698;2024-01-15T00:46:54;92.70;;;55.58;;
66927;SDS011;59882;45.624;11.698;2024-01-15T00:49:19;86.33;;;53.67;;
66927;SDS011;59882;45.624;11.698;2024-01-15T00:51:45;85.83;;;52.03;;
66927;SDS011;59882;45.624;11.698;2024-01-15T00:54:10;91.85;;;54.35;;
66927;SDS011;59882;45.624;11.698;2024-01-15T00:56:36;88.93;;;52.40;;
66927;SDS011;59882;45.624;11.698;2024-01-15T00:59:02;83.40;;;50.70;;
66927;SDS011;59882;45.624;11.698;2024-01-15T01:01:27;83.17;;;49.87;;
66927;SDS011;59882;45.624;11.698;2024-01-15T01:03:53;82.75;;;51.00;;
66927;SDS011;59882;45.624;11.698;2024-01-15T01:06:19;85.57;;;51.93;;
66927;SDS011;59882;45.624;11.698;2024-01-15T01:08:44;89.95;;;54.55;;
66927;SDS011;59882;45.624;11.698;2024-01-15T01:11:13;86.57;;;52.90;;
66927;SDS011;59882;45.624;11.698;2024-01-15T01:13:39;86.63;;;50.80;;
66927;SDS011;59882;45.624;11.698;2024-01-15T01:16:05;82.73;;;52.03;;
66927;SDS011;59882;45.624;11.698;2024-01-15T01:18:30;90.30;;;52.30;;
66927;SDS011;59882;45.624;11.698;2024-01-15T01:20:56;86.97;;;52.73;;
66927;SDS011;59882;45.624;11.698;2024-01-15T01:23:22;79.93;;;49.03;;
66927;SDS011;59882;45.624;11.698;2024-01-15T01:25:47;86.80;;;52.30;;
66927;SDS011;59882;45.624;11.698;2024-01-15T01:28:13;92.77;;;55.27;;
66927;SDS011;59882;45.624;11.698;2024-01-15T01:30:38;85.07;;;51.87;;
66927;SDS011;59882;45.624;11.698;2024-01-15T01:33:04;88.70;;;55.10;;
66927;SDS011;59882;45.624;11.698;2024-01-15T01:35:30;99.20;;;59.63;;
66927;SDS011;59882;45.624;11.698;2024-01-15T01:37:55;96.23;;;59.00;;
66927;SDS011;59882;45.624;11.698;2024-01-15T01:40:21;95.43;;;56.63;;
66927;SDS011;59882;45.624;11.698;2024-01-15T01:42:47;94.27;;;55.83;;
66927;SDS011;59882;45.624;11.698;2024-01-15T01:45:13;93.43;;;55.55;;
66927;SDS011;59882;45.624;11.698;2024-01-15T01:47:39;99.18;;;57.28;;
66927;SDS011;59882;45.624;11.698;2024-01-15T01:50:05;92.60;;;55.63;;
66927;SDS011;59882;45.624;11.698;2024-01-15T01:52:31;95.93;;;55.10;;
66927;SDS011;59882;45.624;11.698;2024-01-15T01:54:58;95.35;;;55.35;;
66927;SDS011;59882;45.624;11.698;2024-01-15T01:57:26;92.60;;;54.97;;
66927;SDS011;59882;45.624;11.698;2024-01-15T01:59:53;88.75;;;52.60;;
66927;SDS011;59882;45.624;11.698;2024-01-15T02:02:19;97.47;;;54.50;;
66927;SDS011;59882;45.624;11.698;2024-01-15T02:04:46;87.57;;;52.35;;
66927;SDS011;59882;45.624;11.698;2024-01-15T02:07:14;87.80;;;52.90;;
66927;SDS011;59882;45.624;11.698;2024-01-15T02:09:42;86.00;;;51.67;;
66927;SDS011;59882;45.624;11.698;2024-01-15T02:12:09;85.00;;;51.15;;
66927;SDS011;59882;45.624;11.698;2024-01-15T02:14:35;89.15;;;52.13;;
66927;SDS011;59882;45.624;11.698;2024-01-15T02:17:01;89.53;;;54.47;;
66927;SDS011;59882;45.624;11.698;2024-01-15T02:19:27;84.28;;;52.05;;
66927;SDS011;59882;45.624;11.698;2024-01-15T02:21:52;77.83;;;47.47;;
66927;SDS011;59882;45.624;11.698;2024-01-15T02:24:18;87.90;;;51.07;;
66927;SDS011;59882;45.624;11.698;2024-01-15T02:26:43;90.72;;;52.85;;
66927;SDS011;59882;45.624;11.698;2024-01-15T02:29:09;88.57;;;51.70;;
66927;SDS011;59882;45.624;11.698;2024-01-15T02:31:36;85.20;;;51.40;;
66927;SDS011;59882;45.624;11.698;2024-01-15T02:34:02;85.93;;;51.50;;
66927;SDS011;59882;45.624;11.698;2024-01-15T02:36:27;89.67;;;51.93;;
66927;SDS011;59882;45.624;11.698;2024-01-15T02:38:53;90.45;;;54.15;;
66927;SDS011;59882;45.624;11.698;2024-01-15T02:41:19;84.87;;;49.67;;
66927;SDS011;59882;45.624;11.698;2024-01-15T02:43:44;95.87;;;53.13;;
66927;SDS011;59882;45.624;11.698;2024-01-15T02:46:10;87.43;;;52.33;;
66927;SDS011;59882;45.624;11.698;2024-01-15T02:48:35;84.13;;;50.47;;
66927;SDS011;59882;45.624;11.698;2024-01-15T02:51:01;88.57;;;50.70;;
66927;SDS011;59882;45.624;11.698;2024-01-15T02:53:27;87.50;;;52.27;;
66927;SDS011;59882;45.624;11.698;2024-01-15T02:55:53;85.93;;;51.70;;
66927;SDS011;59882;45.624;11.698;2024-01-15T02:58:18;85.03;;;50.27;;
66927;SDS011;59882;45.624;11.698;2024-01-15T03:00:44;87.22;;;50.05;;
66927;SDS011;59882;45.624;11.698;2024-01-15T03:03:11;86.73;;;52.60;;
66927;SDS011;59882;45.624;11.698;2024-01-15T03:05:37;81.50;;;47.70;;
66927;SDS011;59882;45.624;11.698;2024-01-15T03:08:02;90.10;;;48.97;;
66927;SDS011;59882;45.624;11.698;2024-01-15T03:10:28;87.45;;;52.15;;
66927;SDS011;59882;45.624;11.698;2024-01-15T03:12:53;86.07;;;48.40;;
66927;SDS011;59882;45.624;11.698;2024-01-15T03:15:19;89.47;;;51.75;;
66927;SDS011;59882;45.624;11.698;2024-01-15T03:17:45;86.23;;;50.93;;
66927;SDS011;59882;45.624;11.698;2024-01-15T03:20:11;83.93;;;49.97;;
66927;SDS011;59882;45.624;11.698;2024-01-15T03:22:36;78.63;;;48.27;;
66927;SDS011;59882;45.624;11.698;2024-01-15T03:25:02;79.40;;;48.40;;
66927;SDS011;59882;45.624;11.698;2024-01-15T03:27:29;83.07;;;49.58;;
66927;SDS011;59882;45.624;11.698;2024-01-15T03:29:54;84.47;;;51.57;;
66927;SDS011;59882;45.624;11.698;2024-01-15T03:32:20;86.83;;;51.10;;
66927;SDS011;59882;45.624;11.698;2024-01-15T03:34:45;83.23;;;48.43;;
66927;SDS011;59882;45.624;11.698;2024-01-15T03:37:12;88.63;;;52.35;;
66927;SDS011;59882;45.624;11.698;2024-01-15T03:39:38;94.07;;;51.97;;
66927;SDS011;59882;45.624;11.698;2024-01-15T03:42:04;86.40;;;52.22;;
66927;SDS011;59882;45.624;11.698;2024-01-15T03:44:29;84.13;;;51.00;;
66927;SDS011;59882;45.624;11.698;2024-01-15T03:46:55;83.13;;;50.08;;
66927;SDS011;59882;45.624;11.698;2024-01-15T03:49:21;83.17;;;50.07;;
66927;SDS011;59882;45.624;11.698;2024-01-15T03:51:46;85.90;;;50.35;;
66927;SDS011;59882;45.624;11.698;2024-01-15T03:54:12;85.57;;;50.70;;
66927;SDS011;59882;45.624;11.698;2024-01-15T03:56:37;87.17;;;48.73;;
66927;SDS011;59882;45.624;11.698;2024-01-15T03:59:03;83.47;;;50.22;;
66927;SDS011;59882;45.624;11.698;2024-01-15T04:01:29;84.03;;;50.43;;
66927;SDS011;59882;45.624;11.698;2024-01-15T04:03:54;87.57;;;51.35;;
66927;SDS011;59882;45.624;11.698;2024-01-15T04:06:20;85.30;;;50.33;;
66927;SDS011;59882;45.624;11.698;2024-01-15T04:08:46;87.53;;;49.05;;
66927;SDS011;59882;45.624;11.698;2024-01-15T04:11:11;86.03;;;51.37;;
66927;SDS011;59882;45.624;11.698;2024-01-15T04:13:37;83.37;;;49.60;;
66927;SDS011;59882;45.624;11.698;2024-01-15T04:16:02;85.60;;;49.60;;
66927;SDS011;59882;45.624;11.698;2024-01-15T04:18:28;84.35;;;50.38;;
66927;SDS011;59882;45.624;11.698;2024-01-15T04:20:54;84.00;;;49.27;;
66927;SDS011;59882;45.624;11.698;2024-01-15T04:23:20;86.00;;;50.20;;
66927;SDS011;59882;45.624;11.698;2024-01-15T04:25:45;85.17;;;49.30;;
66927;SDS011;59882;45.624;11.698;2024-01-15T04:28:11;86.50;;;48.40;;
66927;SDS011;59882;45.624;11.698;2024-01-15T04:30:37;84.15;;;49.25;;
66927;SDS011;59882;45.624;11.698;2024-01-15T04:33:03;81.03;;;48.38;;
66927;SDS011;59882;45.624;11.698;2024-01-15T04:35:29;83.73;;;50.07;;
66927;SDS011;59882;45.624;11.698;2024-01-15T04:37:55;81.30;;;48.03;;
66927;SDS011;59882;45.624;11.698;2024-01-15T04:40:21;88.35;;;50.92;;
66927;SDS011;59882;45.624;11.698;2024-01-15T04:42:46;78.90;;;46.60;;
66927;SDS011;59882;45.624;11.698;2024-01-15T04:45:12;81.93;;;47.83;;
66927;SDS011;59882;45.624;11.698;2024-01-15T04:47:38;76.68;;;47.33;;
66927;SDS011;59882;45.624;11.698;2024-01-15T04:50:04;79.72;;;49.08;;
66927;SDS011;59882;45.624;11.698;2024-01-15T04:52:30;81.55;;;49.05;;
66927;SDS011;59882;45.624;11.698;2024-01-15T04:54:56;78.27;;;46.33;;
66927;SDS011;59882;45.624;11.698;2024-01-15T04:57:22;80.37;;;47.30;;
66927;SDS011;59882;45.624;11.698;2024-01-15T04:59:47;85.95;;;49.03;;
66927;SDS011;59882;45.624;11.698;2024-01-15T05:02:13;75.90;;;45.40;;
66927;SDS011;59882;45.624;11.698;2024-01-15T05:04:38;81.70;;;47.42;;
66927;SDS011;59882;45.624;11.698;2024-01-15T05:07:04;78.67;;;46.03;;
66927;SDS011;59882;45.624;11.698;2024-01-15T05:09:30;76.57;;;46.55;;
66927;SDS011;59882;45.624;11.698;2024-01-15T05:11:55;72.13;;;43.80;;
66927;SDS011;59882;45.624;11.698;2024-01-15T05:14:21;88.28;;;50.88;;
66927;SDS011;59882;45.624;11.698;2024-01-15T05:16:47;84.87;;;48.70;;
66927;SDS011;59882;45.624;11.698;2024-01-15T05:19:13;77.50;;;44.85;;
66927;SDS011;59882;45.624;11.698;2024-01-15T05:21:39;79.90;;;44.00;;
66927;SDS011;59882;45.624;11.698;2024-01-15T05:24:05;74.47;;;43.03;;
66927;SDS011;59882;45.624;11.698;2024-01-15T05:26:30;69.60;;;41.63;;
66927;SDS011;59882;45.624;11.698;2024-01-15T05:28:56;70.68;;;41.47;;
66927;SDS011;59882;45.624;11.698;2024-01-15T05:31:22;65.10;;;39.07;;
66927;SDS011;59882;45.624;11.698;2024-01-15T05:33:48;66.28;;;39.80;;
66927;SDS011;59882;45.624;11.698;2024-01-15T05:36:13;69.70;;;41.40;;
66927;SDS011;59882;45.624;11.698;2024-01-15T05:38:39;77.17;;;45.00;;
66927;SDS011;59882;45.624;11.698;2024-01-15T05:41:05;68.80;;;41.13;;
66927;SDS011;59882;45.624;11.698;2024-01-15T05:43:30;74.75;;;43.63;;
66927;SDS011;59882;45.624;11.698;2024-01-15T05:45:56;75.13;;;42.00;;
66927;SDS011;59882;45.624;11.698;2024-01-15T05:48:23;70.50;;;41.90;;
66927;SDS011;59882;45.624;11.698;2024-01-15T05:50:48;72.82;;;42.15;;
66927;SDS011;59882;45.624;11.698;2024-01-15T05:53:14;70.87;;;39.43;;
66927;SDS011;59882;45.624;11.698;2024-01-15T05:55:40;69.83;;;41.87;;
66927;SDS011;59882;45.624;11.698;2024-01-15T05:58:05;73.32;;;40.45;;
66927;SDS011;59882;45.624;11.698;2024-01-15T06:00:31;71.00;;;39.20;;
66927;SDS011;59882;45.624;11.698;2024-01-15T06:02:58;71.10;;;40.05;;
66927;SDS011;59882;45.624;11.698;2024-01-15T06:05:24;67.38;;;39.42;;
66927;SDS011;59882;45.624;11.698;2024-01-15T06:07:50;65.57;;;38.07;;
66927;SDS011;59882;45.624;11.698;2024-01-15T06:10:15;67.63;;;39.05;;
66927;SDS011;59882;45.624;11.698;2024-01-15T06:12:42;62.87;;;37.70;;
66927;SDS011;59882;45.624;11.698;2024-01-15T06:15:09;71.80;;;40.97;;
66927;SDS011;59882;45.624;11.698;2024-01-15T06:17:35;68.32;;;41.28;;
66927;SDS011;59882;45.624;11.698;2024-01-15T06:20:00;63.57;;;38.17;;
66927;SDS011;59882;45.624;11.698;2024-01-15T06:22:26;64.95;;;38.67;;
66927;SDS011;59882;45.624;11.698;2024-01-15T06:24:51;68.23;;;40.70;;
66927;SDS011;59882;45.624;11.698;2024-01-15T06:27:17;69.90;;;40.67;;
66927;SDS011;59882;45.624;11.698;2024-01-15T06:29:44;64.60;;;35.80;;
66927;SDS011;59882;45.624;11.698;2024-01-15T06:32:13;69.55;;;36.90;;
66927;SDS011;59882;45.624;11.698;2024-01-15T06:34:39;63.37;;;36.00;;
66927;SDS011;59882;45.624;11.698;2024-01-15T06:37:05;65.70;;;37.90;;
66927;SDS011;59882;45.624;11.698;2024-01-15T06:39:31;65.47;;;37.47;;
66927;SDS011;59882;45.624;11.698;2024-01-15T06:41:57;64.73;;;37.63;;
66927;SDS011;59882;45.624;11.698;2024-01-15T06:44:22;70.03;;;38.55;;
66927;SDS011;59882;45.624;11.698;2024-01-15T06:46:48;65.13;;;36.40;;
66927;SDS011;59882;45.624;11.698;2024-01-15T06:49:14;69.40;;;39.63;;
66927;SDS011;59882;45.624;11.698;2024-01-15T06:51:39;67.93;;;42.00;;
66927;SDS011;59882;45.624;11.698;2024-01-15T06:54:05;72.38;;;42.17;;
66927;SDS011;59882;45.624;11.698;2024-01-15T06:56:31;76.37;;;43.33;;
66927;SDS011;59882;45.624;11.698;2024-01-15T06:58:57;74.30;;;41.90;;
66927;SDS011;59882;45.624;11.698;2024-01-15T07:01:22;76.93;;;42.17;;
66927;SDS011;59882;45.624;11.698;2024-01-15T07:03:48;70.10;;;39.22;;
66927;SDS011;59882;45.624;11.698;2024-01-15T07:06:14;66.70;;;38.80;;
66927;SDS011;59882;45.624;11.698;2024-01-15T07:08:40;66.07;;;39.30;;
66927;SDS011;59882;45.624;11.698;2024-01-15T07:11:06;64.10;;;36.33;;
66927;SDS011;59882;45.624;11.698;2024-01-15T07:13:33;69.78;;;40.25;;
66927;SDS011;59882;45.624;11.698;2024-01-15T07:15:59;71.30;;;39.90;;
66927;SDS011;59882;45.624;11.698;2024-01-15T07:18:25;71.60;;;40.03;;
66927;SDS011;59882;45.624;11.698;2024-01-15T07:20:50;68.00;;;38.73;;
66927;SDS011;59882;45.624;11.698;2024-01-15T07:23:16;73.82;;;41.53;;
66927;SDS011;59882;45.624;11.698;2024-01-15T07:25:42;112.20;;;57.63;;
66927;SDS011;59882;45.624;11.698;2024-01-15T07:28:08;75.50;;;44.47;;
66927;SDS011;59882;45.624;11.698;2024-01-15T07:30:34;72.45;;;41.97;;
66927;SDS011;59882;45.624;11.698;2024-01-15T07:32:59;100.47;;;52.10;;
66927;SDS011;59882;45.624;11.698;2024-01-15T07:35:25;310.85;;;117.25;;
66927;SDS011;59882;45.624;11.698;2024-01-15T07:37:51;89.50;;;48.23;;
66927;SDS011;59882;45.624;11.698;2024-01-15T07:40:16;113.27;;;56.90;;
66927;SDS011;59882;45.624;11.698;2024-01-15T07:42:42;119.68;;;61.08;;
66927;SDS011;59882;45.624;11.698;2024-01-15T07:45:08;93.07;;;49.23;;
66927;SDS011;59882;45.624;11.698;2024-01-15T07:47:35;83.20;;;44.90;;
66927;SDS011;59882;45.624;11.698;2024-01-15T07:50:00;81.57;;;43.73;;
66927;SDS011;59882;45.624;11.698;2024-01-15T07:52:26;79.88;;;43.20;;
66927;SDS011;59882;45.624;11.698;2024-01-15T07:54:51;79.00;;;43.47;;
66927;SDS011;59882;45.624;11.698;2024-01-15T07:57:17;78.22;;;44.95;;
66927;SDS011;59882;45.624;11.698;2024-01-15T07:59:43;79.83;;;45.73;;
66927;SDS011;59882;45.624;11.698;2024-01-15T08:02:08;76.97;;;44.20;;
66927;SDS011;59882;45.624;11.698;2024-01-15T08:04:36;80.10;;;42.70;;
66927;SDS011;59882;45.624;11.698;2024-01-15T08:07:02;69.50;;;39.72;;
66927;SDS011;59882;45.624;11.698;2024-01-15T08:09:28;81.43;;;42.55;;
66927;SDS011;59882;45.624;11.698;2024-01-15T08:11:54;76.60;;;40.27;;
66927;SDS011;59882;45.624;11.698;2024-01-15T08:14:20;71.97;;;38.95;;
66927;SDS011;59882;45.624;11.698;2024-01-15T08:16:45;73.97;;;39.13;;
66927;SDS011;59882;45.624;11.698;2024-01-15T08:19:11;79.20;;;41.87;;
66927;SDS011;59882;45.624;11.698;2024-01-15T08:21:37;68.43;;;38.40;;
66927;SDS011;59882;45.624;11.698;2024-01-15T08:24:02;68.43;;;40.53;;
66927;SDS011;59882;45.624;11.698;2024-01-15T08:26:28;73.38;;;40.58;;
66927;SDS011;59882;45.624;11.698;2024-01-15T08:28:54;74.60;;;41.05;;
66927;SDS011;59882;45.624;11.698;2024-01-15T08:31:20;68.47;;;41.03;;
66927;SDS011;59882;45.624;11.698;2024-01-15T08:33:46;71.97;;;41.30;;
66927;SDS011;59882;45.624;11.698;2024-01-15T08:36:12;74.87;;;43.10;;
66927;SDS011;59882;45.624;11.698;2024-01-15T08:38:37;75.30;;;41.70;;
66927;SDS011;59882;45.624;11.698;2024-01-15T08:41:03;89.38;;;43.17;;
66927;SDS011;59882;45.624;11.698;2024-01-15T08:43:29;86.40;;;42.53;;
66927;SDS011;59882;45.624;11.698;2024-01-15T08:45:58;102.27;;;52.43;;
66927;SDS011;59882;45.624;11.698;2024-01-15T08:48:24;139.63;;;69.10;;
66927;SDS011;59882;45.624;11.698;2024-01-15T08:50:52;85.88;;;47.17;;
66927;SDS011;59882;45.624;11.698;2024-01-15T08:53:18;73.35;;;41.10;;
66927;SDS011;59882;45.624;11.698;2024-01-15T08:55:43;73.03;;;41.80;;
66927;SDS011;59882;45.624;11.698;2024-01-15T08:58:09;69.03;;;38.33;;
66927;SDS011;59882;45.624;11.698;2024-01-15T09:00:35;77.43;;;43.60;;
66927;SDS011;59882;45.624;11.698;2024-01-15T09:03:01;68.68;;;39.53;;
66927;SDS011;59882;45.624;11.698;2024-01-15T09:05:27;91.90;;;49.20;;
66927;SDS011;59882;45.624;11.698;2024-01-15T09:07:52;128.15;;;65.82;;
66927;SDS011;59882;45.624;11.698;2024-01-15T09:10:19;117.00;;;59.77;;
66927;SDS011;59882;45.624;11.698;2024-01-15T09:12:45;90.00;;;48.67;;
66927;SDS011;59882;45.624;11.698;2024-01-15T09:15:11;82.20;;;44.13;;
66927;SDS011;59882;45.624;11.698;2024-01-15T09:17:37;70.25;;;41.13;;
66927;SDS011;59882;45.624;11.698;2024-01-15T09:20:02;69.33;;;39.67;;
66927;SDS011;59882;45.624;11.698;2024-01-15T09:22:31;64.95;;;37.85;;
66927;SDS011;59882;45.624;11.698;2024-01-15T09:24:57;62.88;;;37.25;;
66927;SDS011;59882;45.624;11.698;2024-01-15T09:27:23;62.27;;;38.53;;
66927;SDS011;59882;45.624;11.698;2024-01-15T09:29:51;65.40;;;38.13;;
66927;SDS011;59882;45.624;11.698;2024-01-15T09:32:17;65.28;;;39.13;;
66927;SDS011;59882;45.624;11.698;2024-01-15T09:34:43;72.40;;;40.53;;
66927;SDS011;59882;45.624;11.698;2024-01-15T09:37:09;65.73;;;40.03;;
66927;SDS011;59882;45.624;11.698;2024-01-15T09:39:34;73.07;;;42.25;;
66927;SDS011;59882;45.624;11.698;2024-01-15T09:42:00;72.00;;;42.03;;
66927;SDS011;59882;45.624;11.698;2024-01-15T09:44:27;76.90;;;40.85;;
66927;SDS011;59882;45.624;11.698;2024-01-15T09:46:53;73.47;;;44.17;;
66927;SDS011;59882;45.624;11.698;2024-01-15T09:49:20;78.33;;;43.50;;
66927;SDS011;59882;45.624;11.698;2024-01-15T09:51:47;73.50;;;43.83;;
66927;SDS011;59882;45.624;11.698;2024-01-15T09:54:12;68.05;;;41.58;;
66927;SDS011;59882;45.624;11.698;2024-01-15T09:56:41;72.00;;;42.28;;
66927;SDS011;59882;45.624;11.698;2024-01-15T09:59:11;73.50;;;42.67;;
66927;SDS011;59882;45.624;11.698;2024-01-15T10:01:41;73.03;;;43.13;;
66927;SDS011;59882;45.624;11.698;2024-01-15T10:04:09;81.85;;;46.08;;
66927;SDS011;59882;45.624;11.698;2024-01-15T10:06:38;74.68;;;44.45;;
66927;SDS011;59882;45.624;11.698;2024-01-15T10:09:07;79.45;;;47.88;;
66927;SDS011;59882;45.624;11.698;2024-01-15T10:11:33;99.87;;;54.87;;
66927;SDS011;59882;45.624;11.698;2024-01-15T10:13:58;121.45;;;65.97;;
66927;SDS011;59882;45.624;11.698;2024-01-15T10:16:25;116.50;;;62.43;;
66927;SDS011;59882;45.624;11.698;2024-01-15T10:18:51;110.95;;;61.42;;
66927;SDS011;59882;45.624;11.698;2024-01-15T10:21:16;95.63;;;55.57;;
66927;SDS011;59882;45.624;11.698;2024-01-15T10:23:42;87.60;;;51.67;;
66927;SDS011;59882;45.624;11.698;2024-01-15T10:26:08;83.13;;;50.20;;
66927;SDS011;59882;45.624;11.698;2024-01-15T10:28:33;80.40;;;49.90;;
66927;SDS011;59882;45.624;11.698;2024-01-15T10:31:00;75.20;;;46.27;;
66927;SDS011;59882;45.624;11.698;2024-01-15T10:33:27;77.93;;;48.50;;
66927;SDS011;59882;45.624;11.698;2024-01-15T10:35:55;78.68;;;47.55;;
66927;SDS011;59882;45.624;11.698;2024-01-15T10:38:22;77.23;;;46.70;;
66927;SDS011;59882;45.624;11.698;2024-01-15T10:40:52;80.03;;;47.88;;
66927;SDS011;59882;45.624;11.698;2024-01-15T10:43:21;86.28;;;52.33;;
66927;SDS011;59882;45.624;11.698;2024-01-15T10:45:48;75.32;;;46.42;;
66927;SDS011;59882;45.624;11.698;2024-01-15T10:48:18;76.53;;;46.67;;
66927;SDS011;59882;45.624;11.698;2024-01-15T10:50:45;76.30;;;45.07;;
66927;SDS011;59882;45.624;11.698;2024-01-15T10:53:13;75.53;;;44.45;;
66927;SDS011;59882;45.624;11.698;2024-01-15T10:55:39;74.63;;;46.45;;
66927;SDS011;59882;45.624;11.698;2024-01-15T10:58:07;70.45;;;43.67;;
66927;SDS011;59882;45.624;11.698;2024-01-15T11:00:34;72.13;;;44.05;;
66927;SDS011;59882;45.624;11.698;2024-01-15T11:03:02;70.70;;;44.43;;
66927;SDS011;59882;45.624;11.698;2024-01-15T11:05:36;71.38;;;42.60;;
66927;SDS011;59882;45.624;11.698;2024-01-15T11:08:05;72.78;;;45.70;;
66927;SDS011;59882;45.624;11.698;2024-01-15T11:10:38;69.97;;;44.38;;
66927;SDS011;59882;45.624;11.698;2024-01-15T11:13:15;76.63;;;46.55;;
66927;SDS011;59882;45.624;11.698;2024-01-15T11:16:21;76.97;;;47.60;;
66927;SDS011;59882;45.624;11.698;2024-01-15T11:21:21;76.25;;;46.40;;
66927;SDS011;59882;45.624;11.698;2024-01-15T11:28:59;77.30;;;48.00;;
66927;SDS011;59882;45.624;11.698;2024-01-15T11:31:29;75.07;;;46.80;;
66927;SDS011;59882;45.624;11.698;2024-01-15T11:34:15;77.90;;;47.97;;
66927;SDS011;59882;45.624;11.698;2024-01-15T11:41:57;79.72;;;49.85;;
66927;SDS011;59882;45.624;11.698;2024-01-15T11:44:24;87.53;;;53.03;;
66927;SDS011;59882;45.624;11.698;2024-01-15T11:51:57;80.45;;;50.83;;
66927;SDS011;59882;45.624;11.698;2024-01-15T11:54:25;85.70;;;52.70;;
66927;SDS011;59882;45.624;11.698;2024-01-15T11:56:56;75.57;;;48.50;;
66927;SDS011;59882;45.624;11.698;2024-01-15T11:59:24;84.88;;;53.78;;
66927;SDS011;59882;45.624;11.698;2024-01-15T12:01:49;77.57;;;49.47;;
66927;SDS011;59882;45.624;11.698;2024-01-15T12:04:16;78.43;;;50.80;;
66927;SDS011;59882;45.624;11.698;2024-01-15T12:06:44;76.40;;;50.92;;
66927;SDS011;59882;45.624;11.698;2024-01-15T12:09:10;71.80;;;46.35;;
66927;SDS011;59882;45.624;11.698;2024-01-15T12:11:36;73.70;;;47.20;;
66927;SDS011;59882;45.624;11.698;2024-01-15T12:14:05;73.00;;;47.42;;
66927;SDS011;59882;45.624;11.698;2024-01-15T12:16:31;71.93;;;46.70;;
66927;SDS011;59882;45.624;11.698;2024-01-15T12:18:56;76.28;;;49.83;;
66927;SDS011;59882;45.624;11.698;2024-01-15T12:21:22;67.10;;;46.23;;
66927;SDS011;59882;45.624;11.698;2024-01-15T12:23:51;66.75;;;44.72;;
66927;SDS011;59882;45.624;11.698;2024-01-15T12:26:17;66.97;;;45.05;;
66927;SDS011;59882;45.624;11.698;2024-01-15T12:28:43;68.27;;;47.07;;
66927;SDS011;59882;45.624;11.698;2024-01-15T12:31:08;62.30;;;43.63;;
66927;SDS011;59882;45.624;11.698;2024-01-15T12:33:34;60.90;;;41.23;;
66927;SDS011;59882;45.624;11.698;2024-01-15T12:36:00;63.78;;;44.97;;
66927;SDS011;59882;45.624;11.698;2024-01-15T12:38:25;62.57;;;44.63;;
66927;SDS011;59882;45.624;11.698;2024-01-15T12:40:53;63.78;;;44.38;;
66927;SDS011;59882;45.624;11.698;2024-01-15T12:43:19;62.47;;;45.17;;
66927;SDS011;59882;45.624;11.698;2024-01-15T12:45:45;58.33;;;41.67;;
66927;SDS011;59882;45.624;11.698;2024-01-15T12:48:11;58.95;;;43.67;;
66927;SDS011;59882;45.624;11.698;2024-01-15T12:50:38;62.88;;;44.30;;
66927;SDS011;59882;45.624;11.698;2024-01-15T12:53:04;59.63;;;43.73;;
66927;SDS011;59882;45.624;11.698;2024-01-15T12:55:29;53.27;;;40.30;;
66927;SDS011;59882;45.624;11.698;2024-01-15T12:57:55;58.40;;;43.58;;
66927;SDS011;59882;45.624;11.698;2024-01-15T13:00:20;58.13;;;40.37;;
66927;SDS011;59882;45.624;11.698;2024-01-15T13:02:46;55.58;;;42.47;;
66927;SDS011;59882;45.624;11.698;2024-01-15T13:05:12;62.83;;;45.20;;
66927;SDS011;59882;45.624;11.698;2024-01-15T13:07:38;50.83;;;39.13;;
66927;SDS011;59882;45.624;11.698;2024-01-15T13:10:04;57.30;;;41.57;;
66927;SDS011;59882;45.624;11.698;2024-01-15T13:12:30;52.88;;;38.70;;
66927;SDS011;59882;45.624;11.698;2024-01-15T13:14:57;52.85;;;40.42;;
66927;SDS011;59882;45.624;11.698;2024-01-15T13:17:23;58.38;;;41.42;;
66927;SDS011;59882;45.624;11.698;2024-01-15T13:19:49;56.83;;;41.93;;
66927;SDS011;59882;45.624;11.698;2024-01-15T13:22:14;51.47;;;39.13;;
66927;SDS011;59882;45.624;11.698;2024-01-15T13:24:41;52.77;;;39.73;;
66927;SDS011;59882;45.624;11.698;2024-01-15T13:27:07;56.85;;;41.97;;
66927;SDS011;59882;45.624;11.698;2024-01-15T13:29:33;57.47;;;44.03;;
66927;SDS011;59882;45.624;11.698;2024-01-15T13:31:59;58.93;;;42.60;;
66927;SDS011;59882;45.624;11.698;2024-01-15T13:34:25;59.58;;;42.67;;
66927;SDS011;59882;45.624;11.698;2024-01-15T13:36:50;52.37;;;39.23;;
66927;SDS011;59882;45.624;11.698;2024-01-15T13:39:16;55.17;;;42.40;;
66927;SDS011;59882;45.624;11.698;2024-01-15T13:41:45;57.05;;;41.97;;
66927;SDS011;59882;45.624;11.698;2024-01-15T13:44:14;54.10;;;41.27;;
66927;SDS011;59882;45.624;11.698;2024-01-15T13:46:40;57.63;;;42.22;;
66927;SDS011;59882;45.624;11.698;2024-01-15T13:49:06;60.35;;;42.08;;
66927;SDS011;59882;45.624;11.698;2024-01-15T13:51:34;57.28;;;42.33;;
66927;SDS011;59882;45.624;11.698;2024-01-15T13:54:00;59.23;;;42.33;;
66927;SDS011;59882;45.624;11.698;2024-01-15T13:56:26;83.65;;;43.85;;
66927;SDS011;59882;45.624;11.698;2024-01-15T13:58:56;61.53;;;43.83;;
66927;SDS011;59882;45.624;11.698;2024-01-15T14:01:23;68.37;;;42.00;;
66927;SDS011;59882;45.624;11.698;2024-01-15T14:03:49;59.72;;;41.47;;
66927;SDS011;59882;45.624;11.698;2024-01-15T14:06:14;59.90;;;40.87;;
66927;SDS011;59882;45.624;11.698;2024-01-15T14:08:40;55.63;;;40.00;;
66927;SDS011;59882;45.624;11.698;2024-01-15T14:11:05;54.03;;;39.73;;
66927;SDS011;59882;45.624;11.698;2024-01-15T14:13:33;58.50;;;40.70;;
66927;SDS011;59882;45.624;11.698;2024-01-15T14:15:59;56.90;;;40.67;;
66927;SDS011;59882;45.624;11.698;2024-01-15T14:18:25;59.47;;;44.17;;
66927;SDS011;59882;45.624;11.698;2024-01-15T14:20:51;63.45;;;44.97;;